createdAt,value
2023-07-08T00:04:16.010Z,5.30
2023-07-08T00:09:19.581Z,4.97
2023-07-08T00:14:23.165Z,4.90
2023-07-08T00:19:28.021Z,4.85
2023-07-08T00:24:31.469Z,4.68
2023-07-08T00:29:34.982Z,4.78
2023-07-08T00:34:39.870Z,5.65
2023-07-08T00:39:43.427Z,4.97
2023-07-08T00:44:47.044Z,5.53
2023-07-08T00:49:58.170Z,4.50
2023-07-08T00:55:06.736Z,5.38
2023-07-08T01:00:13.925Z,5.07
2023-07-08T01:05:22.906Z,5.63
2023-07-08T01:10:43.141Z,4.97
2023-07-08T01:15:50.268Z,4.97
2023-07-08T01:20:56.750Z,5.22
2023-07-08T01:26:02.917Z,5.18
2023-07-08T01:31:07.986Z,5.07
2023-07-08T01:36:13.201Z,4.93
2023-07-08T01:41:19.326Z,5.03
2023-07-08T01:46:25.956Z,5.50
2023-07-08T01:51:30.517Z,5.03
2023-07-08T01:56:35.718Z,4.90
2023-07-08T02:01:39.898Z,5.60
2023-07-08T02:06:44.287Z,5.20
2023-07-08T02:11:52.894Z,5.00
2023-07-08T02:16:56.730Z,4.43
2023-07-08T02:22:00.258Z,5.03
2023-07-08T02:27:05.847Z,4.65
2023-07-08T02:32:11.005Z,4.95
2023-07-08T02:37:14.516Z,5.13
2023-07-08T02:42:19.489Z,5.30
2023-07-08T02:47:23.242Z,5.45
2023-07-08T02:52:27.149Z,5.35
2023-07-08T02:57:32.176Z,5.00
2023-07-08T03:02:35.873Z,5.50
2023-07-08T03:07:40.292Z,5.07
2023-07-08T03:12:45.183Z,4.82
2023-07-08T03:17:49.958Z,5.30
2023-07-08T03:22:53.524Z,5.07
2023-07-08T03:27:59.488Z,5.45
2023-07-08T03:33:04.281Z,5.47
2023-07-08T03:38:08.439Z,5.00
2023-07-08T03:43:13.319Z,5.80
2023-07-08T03:48:16.870Z,5.55
2023-07-08T03:53:21.652Z,5.90
2023-07-08T03:58:26.976Z,6.05
2023-07-08T04:03:30.901Z,6.22
2023-07-08T04:08:34.499Z,6.60
2023-07-08T04:13:39.774Z,6.75
2023-07-08T04:18:43.438Z,6.63
2023-07-08T04:23:47.387Z,6.47
2023-07-08T04:28:52.881Z,6.57
2023-07-08T04:33:56.517Z,6.47
2023-07-08T04:39:01.152Z,6.80
2023-07-08T04:44:07.925Z,8.07
2023-07-08T04:49:11.788Z,6.55
2023-07-08T04:54:15.721Z,6.80
2023-07-08T04:59:25.577Z,6.53
2023-07-08T05:04:29.051Z,6.32
2023-07-08T05:09:32.916Z,7.38
2023-07-08T05:14:38.128Z,6.68
2023-07-08T05:19:42.783Z,6.22
2023-07-08T05:24:48.037Z,6.03
2023-07-08T05:29:53.506Z,6.25
2023-07-08T05:34:57.077Z,6.20
2023-07-08T05:40:03.033Z,6.22
2023-07-08T05:45:11.323Z,6.25
2023-07-08T05:50:15.144Z,5.95
2023-07-08T05:55:18.583Z,6.00
2023-07-08T06:05:34.813Z,6.22
2023-07-08T06:10:44.715Z,5.38
2023-07-08T06:15:50.044Z,5.72
2023-07-08T06:20:54.957Z,5.47
2023-07-08T06:25:59.120Z,4.85
2023-07-08T06:31:04.226Z,4.80
2023-07-08T06:36:08.955Z,5.30
2023-07-08T06:41:12.403Z,5.20
2023-07-08T06:46:17.356Z,5.78
2023-07-08T06:51:21.098Z,5.35
2023-07-08T06:56:24.696Z,5.78
2023-07-08T07:01:29.705Z,5.22
2023-07-08T07:06:33.215Z,6.10
2023-07-08T07:11:36.673Z,5.88
2023-07-08T07:16:44.987Z,6.10
2023-07-08T07:21:55.604Z,5.93
2023-07-08T07:26:59.333Z,5.75
2023-07-08T07:32:04.259Z,5.20
2023-07-08T07:37:08.246Z,5.32
2023-07-08T07:42:15.601Z,4.75
2023-07-08T07:47:21.993Z,4.32
2023-07-08T07:52:25.656Z,4.70
2023-07-08T07:57:29.176Z,4.03
2023-07-08T08:02:34.158Z,4.15
2023-07-08T08:07:38.318Z,4.93
2023-07-08T08:12:53.041Z,4.50
2023-07-08T08:17:58.967Z,4.47
2023-07-08T08:23:02.846Z,4.38
2023-07-08T08:28:06.605Z,5.15
2023-07-08T08:33:11.885Z,4.20
2023-07-08T08:38:15.810Z,4.03
2023-07-08T08:43:23.980Z,3.90
2023-07-08T08:48:32.593Z,4.82
2023-07-08T08:53:36.246Z,4.10
2023-07-08T08:58:46.484Z,4.13
2023-07-08T09:03:56.937Z,3.42
2023-07-08T09:09:07.964Z,5.03
2023-07-08T09:14:21.095Z,3.60
2023-07-08T09:19:28.725Z,3.47
2023-07-08T09:24:44.468Z,3.45
2023-07-08T09:29:48.692Z,3.35
2023-07-08T09:34:56.612Z,3.20
2023-07-08T09:40:02.135Z,3.55
2023-07-08T09:45:16.094Z,3.42
2023-07-08T09:50:24.403Z,3.67
2023-07-08T09:55:29.288Z,2.88
2023-07-08T10:00:40.730Z,3.10
2023-07-08T10:05:48.989Z,2.95
2023-07-08T10:11:06.227Z,3.15
2023-07-08T10:16:16.199Z,2.70
2023-07-08T10:21:33.501Z,2.95
2023-07-08T10:26:39.386Z,3.22
2023-07-08T10:31:48.413Z,3.13
2023-07-08T10:37:02.865Z,2.97
2023-07-08T10:42:17.417Z,3.42
2023-07-08T10:47:36.474Z,3.70
2023-07-08T10:52:53.649Z,3.58
2023-07-08T10:58:16.497Z,4.80
2023-07-08T11:03:48.594Z,4.47
2023-07-08T11:09:00.847Z,3.90
2023-07-08T11:14:12.494Z,4.43
2023-07-08T11:19:20.447Z,6.43
2023-07-08T11:24:34.230Z,4.03
2023-07-08T11:29:42.793Z,3.60
2023-07-08T11:34:49.828Z,3.85
2023-07-08T11:40:00.843Z,4.30
2023-07-08T11:45:10.684Z,4.03
2023-07-08T11:50:20.892Z,3.70
2023-07-08T11:55:31.128Z,3.50
2023-07-08T12:00:37.876Z,3.20
2023-07-08T12:05:41.653Z,4.75
2023-07-08T12:10:52.862Z,3.38
2023-07-08T12:15:56.415Z,3.50
2023-07-08T12:21:02.601Z,3.03
2023-07-08T12:26:11.062Z,3.15
2023-07-08T12:31:19.222Z,3.17
2023-07-08T12:36:26.245Z,2.80
2023-07-08T12:41:34.226Z,3.47
2023-07-08T12:46:38.067Z,2.80
2023-07-08T12:51:44.986Z,2.72
2023-07-08T12:56:50.113Z,2.70
2023-07-08T13:01:55.233Z,3.10
2023-07-08T13:06:58.783Z,2.88
2023-07-08T13:12:07.302Z,3.17
2023-07-08T13:17:13.753Z,2.35
2023-07-08T13:22:21.674Z,2.60
2023-07-08T13:27:28.028Z,2.53
2023-07-08T13:32:33.441Z,2.75
2023-07-08T13:37:38.241Z,2.17
2023-07-08T13:42:49.454Z,2.47
2023-07-08T13:48:04.048Z,2.85
2023-07-08T13:53:19.384Z,2.55
2023-07-08T13:58:29.533Z,2.45
2023-07-08T14:03:33.258Z,2.50
2023-07-08T14:08:36.805Z,2.60
2023-07-08T14:13:42.001Z,2.95
2023-07-08T14:18:46.339Z,3.30
2023-07-08T14:23:50.806Z,2.63
2023-07-08T14:28:55.726Z,2.65
2023-07-08T14:34:07.076Z,2.70
2023-07-08T14:39:21.046Z,2.97
2023-07-08T14:44:28.988Z,2.65
2023-07-08T14:49:32.360Z,2.42
2023-07-08T14:54:36.119Z,2.30
2023-07-08T14:59:41.010Z,2.15
2023-07-08T15:04:44.773Z,2.42
2023-07-08T15:09:48.739Z,2.53
2023-07-08T15:14:53.596Z,2.53
2023-07-08T15:19:57.000Z,2.63
2023-07-08T15:25:00.406Z,2.45
2023-07-08T15:30:06.150Z,2.60
2023-07-08T15:35:14.784Z,2.30
2023-07-08T15:40:19.938Z,2.38
2023-07-08T15:45:27.239Z,2.15
2023-07-08T15:50:31.415Z,2.13
2023-07-08T15:55:38.750Z,2.40
2023-07-08T16:00:44.085Z,2.60
2023-07-08T16:05:47.504Z,2.83
2023-07-08T16:10:54.433Z,2.22
2023-07-08T16:15:59.456Z,2.15
2023-07-08T16:21:03.204Z,2.15
2023-07-08T16:26:07.253Z,2.25
2023-07-08T16:31:14.122Z,1.98
2023-07-08T16:36:20.446Z,2.17
2023-07-08T16:41:27.935Z,2.45
2023-07-08T16:46:32.820Z,2.17
2023-07-08T16:51:36.457Z,2.25
2023-07-08T16:56:41.219Z,2.22
2023-07-08T17:01:48.412Z,1.90
2023-07-08T17:06:51.842Z,2.00
2023-07-08T17:11:55.628Z,2.00
2023-07-08T17:17:00.633Z,2.15
2023-07-08T17:22:04.126Z,2.03
2023-07-08T17:27:08.179Z,2.00
2023-07-08T17:32:14.307Z,2.20
2023-07-08T17:37:17.847Z,1.80
2023-07-08T17:42:21.587Z,2.40
2023-07-08T17:47:26.476Z,1.83
2023-07-08T17:52:30.036Z,2.05
2023-07-08T17:57:33.486Z,2.03
2023-07-08T18:02:38.650Z,2.70
2023-07-08T18:07:42.199Z,2.17
2023-07-08T18:12:47.168Z,2.38
2023-07-08T18:17:54.954Z,2.53
2023-07-08T18:22:59.150Z,2.55
2023-07-08T18:28:03.672Z,2.42
2023-07-08T18:33:13.604Z,2.55
2023-07-08T18:38:17.648Z,2.42
2023-07-08T18:43:23.349Z,2.67
2023-07-08T18:48:28.173Z,2.63
2023-07-08T18:53:31.578Z,2.78
2023-07-08T18:58:35.568Z,2.53
2023-07-08T19:03:41.147Z,2.78
2023-07-08T19:08:47.757Z,2.58
2023-07-08T19:13:52.458Z,2.47
2023-07-08T19:18:57.391Z,2.42
2023-07-08T19:24:01.594Z,2.58
2023-07-08T19:29:05.309Z,2.33
2023-07-08T19:34:14.917Z,2.25
2023-07-08T19:39:18.348Z,2.40
2023-07-08T19:44:26.660Z,2.35
2023-07-08T19:49:31.533Z,2.42
2023-07-08T19:54:35.049Z,2.63
2023-07-08T19:59:38.613Z,2.40
2023-07-08T20:04:49.280Z,2.22
2023-07-08T20:09:52.879Z,2.08
2023-07-08T20:14:57.364Z,2.20
2023-07-08T20:20:02.359Z,2.10
2023-07-08T20:25:07.358Z,2.40
2023-07-08T20:30:22.088Z,2.42
2023-07-08T20:35:30.048Z,2.13
2023-07-08T20:40:33.866Z,2.45
2023-07-08T20:45:37.610Z,2.78
2023-07-08T20:50:42.609Z,2.30
2023-07-08T20:55:46.311Z,2.60
2023-07-08T21:00:50.543Z,2.25
2023-07-08T21:05:57.739Z,2.13
2023-07-08T21:11:01.288Z,2.28
2023-07-08T21:16:05.457Z,2.20
2023-07-08T21:21:12.447Z,2.20
2023-07-08T21:26:21.810Z,2.10
2023-07-08T21:31:25.387Z,2.10
2023-07-08T21:36:34.575Z,2.35
2023-07-08T21:41:38.213Z,2.28
2023-07-08T21:46:41.913Z,2.28
2023-07-08T21:51:47.272Z,2.28
2023-07-08T21:56:50.771Z,2.07
2023-07-08T22:01:54.266Z,2.50
2023-07-08T22:07:02.330Z,2.28
2023-07-08T22:12:07.371Z,2.15
2023-07-08T22:17:17.591Z,2.05
2023-07-08T22:22:24.754Z,2.13
2023-07-08T22:27:28.157Z,2.03
2023-07-08T22:32:31.834Z,2.15
2023-07-08T22:37:36.735Z,2.47
2023-07-08T22:42:41.075Z,2.20
2023-07-08T22:47:46.542Z,2.10
2023-07-08T22:52:54.453Z,2.22
2023-07-08T22:58:01.388Z,2.20
2023-07-08T23:03:05.538Z,2.03
2023-07-08T23:08:14.862Z,2.10
2023-07-08T23:13:19.814Z,2.08
2023-07-08T23:18:23.373Z,2.00
2023-07-08T23:23:28.252Z,1.75
2023-07-08T23:28:31.897Z,1.92
2023-07-08T23:33:35.337Z,2.20
2023-07-08T23:38:40.171Z,1.77
2023-07-08T23:43:46.042Z,2.05
2023-07-08T23:48:49.713Z,1.95
2023-07-08T23:53:54.588Z,2.05
2023-07-08T23:58:58.566Z,1.75
